CDT,Max TemperatureF,Mean TemperatureF,Min TemperatureF,Max Dew PointF,MeanDew PointF,Min DewpointF,Max Humidity, Mean Humidity, Min Humidity, Max Sea Level PressureIn, Mean Sea Level PressureIn, Min Sea Level PressureIn, Max VisibilityMiles, Mean VisibilityMiles, Min VisibilityMiles, Max Wind SpeedMPH, Mean Wind SpeedMPH, Max Gust SpeedMPH,PrecipitationIn, CloudCover, Events, WindDirDegrees
2013-8-1,82,69,56,65,59,55,97,70,42,30.06,30.02,29.92,10,8,2,13,6,17,0.00,1,,269
2013-8-2,84,74,63,68,64,60,87,73,58,29.98,29.90,29.87,10,10,10,16,7,22,0.02,4,Rain,274
2013-8-3,80,69,58,61,57,53,97,68,39,30.16,30.08,30.00,10,10,8,12,6,18,0.00,0,,354
2013-8-4,79,66,52,58,54,50,93,65,37,30.22,30.16,30.09,10,10,10,10,3,15,0.00,1,,94
2013-8-5,75,67,58,67,61,53,93,83,73,30.11,30.00,29.86,10,6,0,26,8,32,0.99,6,Fog-Rain-Thunderstorm,123
2013-8-6,84,76,68,73,69,66,100,87,74,29.90,29.86,29.81,10,5,0,12,5,15,T,4,Fog,208
2013-8-7,85,73,61,72,68,60,97,76,55,29.97,29.85,29.79,10,5,0,13,6,18,0.00,1,Fog,301
2013-8-8,81,70,59,64,61,57,97,76,54,30.03,29.99,29.97,10,10,7,17,5,38,0.00,1,,38
2013-8-9,81,71,60,66,63,60,100,81,62,30.09,30.02,29.99,10,9,3,10,4,14,0.00,0,,279
2013-8-10,80,69,57,61,57,54,93,68,42,30.17,30.14,30.11,10,9,7,13,5,17,0.00,0,,336
2013-8-11,82,70,57,65,61,56,93,74,54,30.16,30.09,30.02,10,10,9,13,5,17,0.00,1,,208
2013-8-12,82,71,59,67,64,57,90,71,51,30.02,29.97,29.92,10,10,10,14,7,20,0.00,2,,290
2013-8-13,75,62,49,57,53,48,93,67,41,30.18,30.10,29.99,10,10,9,16,7,21,0.00,1,,24
2013-8-14,76,62,47,55,49,45,93,63,33,30.25,30.20,30.15,10,10,10,9,3,12,0.00,1,,10
2013-8-15,75,64,52,56,53,49,93,70,46,30.20,30.16,30.11,10,10,10,7,1,9,0.00,1,,237
2013-8-16,81,65,49,58,53,48,96,68,39,30.21,30.18,30.16,10,8,2,10,2,13,0.00,1,,31
2013-8-17,81,66,50,58,54,49,93,66,39,30.24,30.20,30.16,10,9,4,14,4,22,0.00,1,,98
2013-8-18,82,67,52,62,56,50,96,69,42,30.23,30.16,30.11,10,8,4,12,3,15,0.00,0,,123
2013-8-19,84,71,57,64,61,55,93,72,51,30.13,30.08,30.03,10,8,4,13,6,17,0.00,1,,198
2013-8-20,86,76,66,66,63,61,87,66,45,30.09,30.04,30.01,10,8,5,14,8,21,0.00,0,,189
2013-8-21,88,79,69,68,66,64,84,67,50,30.06,30.02,29.97,10,9,5,17,9,23,0.00,1,,202
2013-8-22,79,72,64,67,65,63,93,79,64,30.16,30.07,30.01,10,9,7,21,6,26,T,3,Rain-Thunderstorm,119
2013-8-23,85,72,59,66,61,57,100,72,43,30.18,30.14,30.10,10,4,0,15,7,20,0.00,1,Fog,83
2013-8-24,88,75,62,68,63,54,78,64,50,30.24,30.18,30.14,10,10,10,13,7,18,0.00,0,,144
2013-8-25,90,81,72,68,65,63,79,62,44,30.22,30.17,30.13,10,10,8,16,10,21,0.00,0,,196
2013-8-26,92,80,68,72,68,63,68,62,56,30.16,30.10,30.00,10,6,1,9,9,,0.00,0,,227
2013-8-27,95,85,74,70,68,65,87,65,43,30.01,29.94,29.88,10,10,10,18,10,25,0.00,0,,229
2013-8-28,94,83,71,76,71,64,85,72,58,30.01,29.95,29.89,10,10,7,14,7,18,0.00,1,,332
2013-8-29,89,81,72,73,70,66,90,75,59,30.07,30.02,29.96,10,8,5,12,7,15,0.00,3,,116
2013-8-30,97,86,74,75,71,66,93,66,38,29.96,29.85,29.76,10,8,3,23,7,31,0.00,0,,206
2013-8-31,85,77,69,69,67,64,97,78,59,29.83,29.80,29.76,10,8,5,18,8,21,0.00,3,,77